sensor_id;sensor_type;location;lat;lon;timestamp;P1;durP1;ratioP1;P2;durP2;ratioP2
11328;SDS011;5719;42.714;23.732;2023-02-01T00:02:09;15.00;;;8.75;;
11328;SDS011;5719;42.714;23.732;2023-02-01T00:04:36;11.93;;;8.05;;
11328;SDS011;5719;42.714;23.732;2023-02-01T00:07:03;9.93;;;6.88;;
11328;SDS011;5719;42.714;23.732;2023-02-01T00:09:30;13.98;;;7.75;;
11328;SDS011;5719;42.714;23.732;2023-02-01T00:11:58;11.32;;;7.50;;
11328;SDS011;5719;42.714;23.732;2023-02-01T00:14:27;11.32;;;7.30;;
11328;SDS011;5719;42.714;23.732;2023-02-01T00:16:54;14.10;;;8.18;;
11328;SDS011;5719;42.714;23.732;2023-02-01T00:19:21;9.15;;;6.65;;
11328;SDS011;5719;42.714;23.732;2023-02-01T00:21:48;11.63;;;6.45;;
11328;SDS011;5719;42.714;23.732;2023-02-01T00:24:15;10.88;;;5.95;;
11328;SDS011;5719;42.714;23.732;2023-02-01T00:26:42;12.25;;;6.72;;
11328;SDS011;5719;42.714;23.732;2023-02-01T00:29:12;13.38;;;7.72;;
11328;SDS011;5719;42.714;23.732;2023-02-01T00:31:41;15.60;;;7.28;;
11328;SDS011;5719;42.714;23.732;2023-02-01T00:34:08;15.60;;;8.23;;
11328;SDS011;5719;42.714;23.732;2023-02-01T00:36:37;9.88;;;6.97;;
11328;SDS011;5719;42.714;23.732;2023-02-01T00:39:04;9.43;;;6.13;;
11328;SDS011;5719;42.714;23.732;2023-02-01T00:41:31;9.32;;;6.15;;
11328;SDS011;5719;42.714;23.732;2023-02-01T00:43:58;9.27;;;6.50;;
11328;SDS011;5719;42.714;23.732;2023-02-01T00:46:27;9.07;;;6.07;;
11328;SDS011;5719;42.714;23.732;2023-02-01T00:48:54;8.77;;;5.65;;
11328;SDS011;5719;42.714;23.732;2023-02-01T00:51:22;8.45;;;5.82;;
11328;SDS011;5719;42.714;23.732;2023-02-01T00:53:51;11.07;;;5.72;;
11328;SDS011;5719;42.714;23.732;2023-02-01T00:56:18;9.35;;;5.57;;
11328;SDS011;5719;42.714;23.732;2023-02-01T00:58:46;9.05;;;5.85;;
11328;SDS011;5719;42.714;23.732;2023-02-01T01:01:14;6.80;;;5.32;;
11328;SDS011;5719;42.714;23.732;2023-02-01T01:03:45;6.45;;;4.60;;
11328;SDS011;5719;42.714;23.732;2023-02-01T01:06:14;8.13;;;4.90;;
11328;SDS011;5719;42.714;23.732;2023-02-01T01:08:43;7.53;;;4.30;;
11328;SDS011;5719;42.714;23.732;2023-02-01T01:11:11;5.40;;;4.18;;
11328;SDS011;5719;42.714;23.732;2023-02-01T01:13:40;5.40;;;4.38;;
11328;SDS011;5719;42.714;23.732;2023-02-01T01:16:08;6.13;;;4.93;;
11328;SDS011;5719;42.714;23.732;2023-02-01T01:18:36;6.22;;;4.75;;
11328;SDS011;5719;42.714;23.732;2023-02-01T01:21:05;7.22;;;4.88;;
11328;SDS011;5719;42.714;23.732;2023-02-01T01:23:33;8.25;;;4.80;;
11328;SDS011;5719;42.714;23.732;2023-02-01T01:26:04;7.65;;;5.05;;
11328;SDS011;5719;42.714;23.732;2023-02-01T01:28:32;7.30;;;5.30;;
11328;SDS011;5719;42.714;23.732;2023-02-01T01:30:59;6.38;;;5.35;;
11328;SDS011;5719;42.714;23.732;2023-02-01T01:33:25;7.75;;;5.25;;
11328;SDS011;5719;42.714;23.732;2023-02-01T01:35:52;7.13;;;5.63;;
11328;SDS011;5719;42.714;23.732;2023-02-01T01:38:20;8.18;;;5.25;;
11328;SDS011;5719;42.714;23.732;2023-02-01T01:40:47;9.60;;;5.65;;
11328;SDS011;5719;42.714;23.732;2023-02-01T01:43:16;7.40;;;5.10;;
11328;SDS011;5719;42.714;23.732;2023-02-01T01:45:47;8.35;;;5.25;;
11328;SDS011;5719;42.714;23.732;2023-02-01T01:48:16;8.63;;;4.90;;
11328;SDS011;5719;42.714;23.732;2023-02-01T01:50:51;6.90;;;4.93;;
11328;SDS011;5719;42.714;23.732;2023-02-01T01:53:25;6.88;;;5.28;;
11328;SDS011;5719;42.714;23.732;2023-02-01T01:55:56;10.00;;;5.90;;
11328;SDS011;5719;42.714;23.732;2023-02-01T01:58:24;10.30;;;5.80;;
11328;SDS011;5719;42.714;23.732;2023-02-01T02:00:53;9.93;;;5.60;;
11328;SDS011;5719;42.714;23.732;2023-02-01T02:03:21;9.30;;;6.18;;
11328;SDS011;5719;42.714;23.732;2023-02-01T02:05:50;10.75;;;6.15;;
11328;SDS011;5719;42.714;23.732;2023-02-01T02:08:20;10.32;;;7.18;;
11328;SDS011;5719;42.714;23.732;2023-02-01T02:10:50;14.05;;;6.63;;
11328;SDS011;5719;42.714;23.732;2023-02-01T02:13:26;8.95;;;6.30;;
11328;SDS011;5719;42.714;23.732;2023-02-01T02:16:01;8.50;;;6.40;;
11328;SDS011;5719;42.714;23.732;2023-02-01T02:18:35;8.75;;;6.25;;
11328;SDS011;5719;42.714;23.732;2023-02-01T02:21:10;9.43;;;5.63;;
11328;SDS011;5719;42.714;23.732;2023-02-01T02:23:53;10.20;;;6.18;;
11328;SDS011;5719;42.714;23.732;2023-02-01T02:33:18;9.90;;;7.00;;
11328;SDS011;5719;42.714;23.732;2023-02-01T02:35:56;8.77;;;6.50;;
11328;SDS011;5719;42.714;23.732;2023-02-01T02:38:30;10.98;;;6.78;;
11328;SDS011;5719;42.714;23.732;2023-02-01T02:41:13;10.60;;;7.35;;
11328;SDS011;5719;42.714;23.732;2023-02-01T02:44:07;10.80;;;7.88;;
11328;SDS011;5719;42.714;23.732;2023-02-01T02:49:49;14.15;;;7.93;;
11328;SDS011;5719;42.714;23.732;2023-02-01T02:52:33;9.27;;;6.88;;
11328;SDS011;5719;42.714;23.732;2023-02-01T02:55:25;9.52;;;7.50;;
11328;SDS011;5719;42.714;23.732;2023-02-01T02:57:54;12.38;;;7.40;;
11328;SDS011;5719;42.714;23.732;2023-02-01T03:00:42;11.07;;;6.97;;
11328;SDS011;5719;42.714;23.732;2023-02-01T03:03:28;12.55;;;7.45;;
11328;SDS011;5719;42.714;23.732;2023-02-01T03:06:14;12.80;;;7.00;;
11328;SDS011;5719;42.714;23.732;2023-02-01T03:08:42;9.15;;;7.05;;
11328;SDS011;5719;42.714;23.732;2023-02-01T03:11:10;8.27;;;6.53;;
11328;SDS011;5719;42.714;23.732;2023-02-01T03:13:41;11.43;;;6.90;;
11328;SDS011;5719;42.714;23.732;2023-02-01T03:16:12;11.32;;;6.75;;
11328;SDS011;5719;42.714;23.732;2023-02-01T03:18:46;12.98;;;6.97;;
11328;SDS011;5719;42.714;23.732;2023-02-01T03:21:22;11.80;;;6.60;;
11328;SDS011;5719;42.714;23.732;2023-02-01T03:23:52;10.05;;;7.10;;
11328;SDS011;5719;42.714;23.732;2023-02-01T03:26:23;12.90;;;7.22;;
11328;SDS011;5719;42.714;23.732;2023-02-01T03:28:54;9.75;;;6.97;;
11328;SDS011;5719;42.714;23.732;2023-02-01T03:33:54;11.60;;;6.82;;
11328;SDS011;5719;42.714;23.732;2023-02-01T03:36:25;11.80;;;6.80;;
11328;SDS011;5719;42.714;23.732;2023-02-01T03:38:58;13.40;;;8.23;;
11328;SDS011;5719;42.714;23.732;2023-02-01T03:44:04;8.95;;;5.85;;
11328;SDS011;5719;42.714;23.732;2023-02-01T03:46:39;9.60;;;6.70;;
11328;SDS011;5719;42.714;23.732;2023-02-01T03:49:10;10.73;;;6.45;;
11328;SDS011;5719;42.714;23.732;2023-02-01T03:51:45;8.40;;;6.72;;
11328;SDS011;5719;42.714;23.732;2023-02-01T03:54:14;10.40;;;5.78;;
11328;SDS011;5719;42.714;23.732;2023-02-01T03:56:42;8.63;;;6.00;;
11328;SDS011;5719;42.714;23.732;2023-02-01T03:59:12;9.45;;;5.88;;
11328;SDS011;5719;42.714;23.732;2023-02-01T04:01:39;12.07;;;6.10;;
11328;SDS011;5719;42.714;23.732;2023-02-01T04:04:07;7.88;;;6.00;;
11328;SDS011;5719;42.714;23.732;2023-02-01T04:06:34;13.68;;;5.80;;
11328;SDS011;5719;42.714;23.732;2023-02-01T04:09:02;8.48;;;5.68;;
11328;SDS011;5719;42.714;23.732;2023-02-01T04:11:30;10.13;;;6.25;;
11328;SDS011;5719;42.714;23.732;2023-02-01T04:13:56;11.75;;;5.88;;
11328;SDS011;5719;42.714;23.732;2023-02-01T04:16:23;14.95;;;5.97;;
11328;SDS011;5719;42.714;23.732;2023-02-01T04:18:50;11.30;;;6.07;;
11328;SDS011;5719;42.714;23.732;2023-02-01T04:21:17;11.23;;;5.85;;
11328;SDS011;5719;42.714;23.732;2023-02-01T04:23:44;10.45;;;6.35;;
11328;SDS011;5719;42.714;23.732;2023-02-01T04:26:12;8.43;;;5.60;;
11328;SDS011;5719;42.714;23.732;2023-02-01T04:28:39;8.13;;;5.40;;
11328;SDS011;5719;42.714;23.732;2023-02-01T04:31:05;8.23;;;5.40;;
11328;SDS011;5719;42.714;23.732;2023-02-01T04:33:32;10.00;;;5.93;;
11328;SDS011;5719;42.714;23.732;2023-02-01T04:35:59;10.55;;;5.43;;
11328;SDS011;5719;42.714;23.732;2023-02-01T04:38:26;9.07;;;6.10;;
11328;SDS011;5719;42.714;23.732;2023-02-01T04:40:54;12.82;;;6.40;;
11328;SDS011;5719;42.714;23.732;2023-02-01T04:43:22;11.60;;;6.47;;
11328;SDS011;5719;42.714;23.732;2023-02-01T04:45:49;9.30;;;6.32;;
11328;SDS011;5719;42.714;23.732;2023-02-01T04:48:17;9.38;;;6.65;;
11328;SDS011;5719;42.714;23.732;2023-02-01T04:50:45;8.25;;;6.38;;
11328;SDS011;5719;42.714;23.732;2023-02-01T04:53:14;12.45;;;7.80;;
11328;SDS011;5719;42.714;23.732;2023-02-01T04:55:41;13.20;;;6.90;;
11328;SDS011;5719;42.714;23.732;2023-02-01T04:58:09;11.10;;;6.65;;
11328;SDS011;5719;42.714;23.732;2023-02-01T05:00:38;10.63;;;6.95;;
11328;SDS011;5719;42.714;23.732;2023-02-01T05:03:05;11.48;;;6.47;;
11328;SDS011;5719;42.714;23.732;2023-02-01T05:05:32;16.50;;;6.72;;
11328;SDS011;5719;42.714;23.732;2023-02-01T05:07:59;12.18;;;8.05;;
11328;SDS011;5719;42.714;23.732;2023-02-01T05:10:26;14.75;;;8.65;;
11328;SDS011;5719;42.714;23.732;2023-02-01T05:12:52;16.25;;;10.57;;
11328;SDS011;5719;42.714;23.732;2023-02-01T05:15:38;10.90;;;8.27;;
11328;SDS011;5719;42.714;23.732;2023-02-01T05:18:05;12.95;;;8.13;;
11328;SDS011;5719;42.714;23.732;2023-02-01T05:20:32;10.55;;;7.40;;
11328;SDS011;5719;42.714;23.732;2023-02-01T05:22:59;11.98;;;7.47;;
11328;SDS011;5719;42.714;23.732;2023-02-01T05:25:26;15.25;;;7.63;;
11328;SDS011;5719;42.714;23.732;2023-02-01T05:27:53;13.82;;;7.43;;
11328;SDS011;5719;42.714;23.732;2023-02-01T05:30:20;13.48;;;7.32;;
11328;SDS011;5719;42.714;23.732;2023-02-01T05:32:50;16.13;;;7.05;;
11328;SDS011;5719;42.714;23.732;2023-02-01T05:35:18;11.73;;;6.32;;
11328;SDS011;5719;42.714;23.732;2023-02-01T05:37:45;10.82;;;6.28;;
11328;SDS011;5719;42.714;23.732;2023-02-01T05:40:14;11.95;;;6.53;;
11328;SDS011;5719;42.714;23.732;2023-02-01T05:42:41;9.60;;;6.57;;
11328;SDS011;5719;42.714;23.732;2023-02-01T05:45:08;14.23;;;6.60;;
11328;SDS011;5719;42.714;23.732;2023-02-01T05:47:35;9.60;;;6.00;;
11328;SDS011;5719;42.714;23.732;2023-02-01T05:50:05;11.20;;;6.18;;
11328;SDS011;5719;42.714;23.732;2023-02-01T05:52:32;10.90;;;6.75;;
11328;SDS011;5719;42.714;23.732;2023-02-01T05:54:59;16.27;;;7.43;;
11328;SDS011;5719;42.714;23.732;2023-02-01T05:57:26;8.52;;;6.07;;
11328;SDS011;5719;42.714;23.732;2023-02-01T05:59:53;12.52;;;6.15;;
11328;SDS011;5719;42.714;23.732;2023-02-01T06:02:20;12.88;;;6.35;;
11328;SDS011;5719;42.714;23.732;2023-02-01T06:04:49;24.00;;;7.00;;
11328;SDS011;5719;42.714;23.732;2023-02-01T06:07:17;14.95;;;7.22;;
11328;SDS011;5719;42.714;23.732;2023-02-01T06:09:44;11.25;;;6.70;;
11328;SDS011;5719;42.714;23.732;2023-02-01T06:12:11;9.80;;;6.55;;
11328;SDS011;5719;42.714;23.732;2023-02-01T06:14:38;12.77;;;6.10;;
11328;SDS011;5719;42.714;23.732;2023-02-01T06:17:05;14.70;;;7.45;;
11328;SDS011;5719;42.714;23.732;2023-02-01T06:19:33;14.80;;;7.68;;
11328;SDS011;5719;42.714;23.732;2023-02-01T06:22:00;14.48;;;7.63;;
11328;SDS011;5719;42.714;23.732;2023-02-01T06:24:28;12.57;;;7.93;;
11328;SDS011;5719;42.714;23.732;2023-02-01T06:26:55;10.50;;;7.03;;
11328;SDS011;5719;42.714;23.732;2023-02-01T06:29:22;15.55;;;8.38;;
11328;SDS011;5719;42.714;23.732;2023-02-01T06:31:49;17.83;;;7.18;;
11328;SDS011;5719;42.714;23.732;2023-02-01T06:34:16;17.88;;;7.45;;
11328;SDS011;5719;42.714;23.732;2023-02-01T06:36:43;19.83;;;9.15;;
11328;SDS011;5719;42.714;23.732;2023-02-01T06:39:09;11.18;;;6.57;;
11328;SDS011;5719;42.714;23.732;2023-02-01T06:41:42;15.13;;;8.63;;
11328;SDS011;5719;42.714;23.732;2023-02-01T06:44:09;11.50;;;6.75;;
11328;SDS011;5719;42.714;23.732;2023-02-01T06:46:36;10.98;;;6.20;;
11328;SDS011;5719;42.714;23.732;2023-02-01T06:49:03;12.05;;;6.25;;
11328;SDS011;5719;42.714;23.732;2023-02-01T06:51:30;10.55;;;6.95;;
11328;SDS011;5719;42.714;23.732;2023-02-01T06:53:57;14.07;;;5.90;;
11328;SDS011;5719;42.714;23.732;2023-02-01T06:56:24;11.27;;;6.22;;
11328;SDS011;5719;42.714;23.732;2023-02-01T06:58:53;11.63;;;6.32;;
11328;SDS011;5719;42.714;23.732;2023-02-01T07:01:20;13.68;;;6.60;;
11328;SDS011;5719;42.714;23.732;2023-02-01T07:03:47;11.63;;;5.85;;
11328;SDS011;5719;42.714;23.732;2023-02-01T07:06:16;13.40;;;7.07;;
11328;SDS011;5719;42.714;23.732;2023-02-01T07:08:43;19.23;;;6.88;;
11328;SDS011;5719;42.714;23.732;2023-02-01T07:11:11;15.02;;;6.70;;
11328;SDS011;5719;42.714;23.732;2023-02-01T07:13:39;9.77;;;5.53;;
11328;SDS011;5719;42.714;23.732;2023-02-01T07:16:09;12.30;;;6.72;;
11328;SDS011;5719;42.714;23.732;2023-02-01T07:18:37;13.88;;;6.72;;
11328;SDS011;5719;42.714;23.732;2023-02-01T07:21:05;12.95;;;6.28;;
11328;SDS011;5719;42.714;23.732;2023-02-01T07:23:32;10.05;;;5.80;;
11328;SDS011;5719;42.714;23.732;2023-02-01T07:26:00;10.57;;;5.72;;
11328;SDS011;5719;42.714;23.732;2023-02-01T07:28:29;12.43;;;5.57;;
11328;SDS011;5719;42.714;23.732;2023-02-01T07:31:01;8.82;;;5.57;;
11328;SDS011;5719;42.714;23.732;2023-02-01T07:33:30;11.73;;;5.95;;
11328;SDS011;5719;42.714;23.732;2023-02-01T07:35:57;13.20;;;6.03;;
11328;SDS011;5719;42.714;23.732;2023-02-01T07:38:26;9.52;;;6.00;;
11328;SDS011;5719;42.714;23.732;2023-02-01T07:40:56;10.63;;;5.43;;
11328;SDS011;5719;42.714;23.732;2023-02-01T07:43:24;11.05;;;5.80;;
11328;SDS011;5719;42.714;23.732;2023-02-01T07:45:52;11.35;;;5.53;;
11328;SDS011;5719;42.714;23.732;2023-02-01T07:48:19;13.57;;;5.95;;
11328;SDS011;5719;42.714;23.732;2023-02-01T07:50:48;10.30;;;5.55;;
11328;SDS011;5719;42.714;23.732;2023-02-01T07:53:22;10.13;;;5.88;;
11328;SDS011;5719;42.714;23.732;2023-02-01T07:55:49;8.18;;;5.03;;
11328;SDS011;5719;42.714;23.732;2023-02-01T07:58:16;12.15;;;5.03;;
11328;SDS011;5719;42.714;23.732;2023-02-01T08:00:43;10.40;;;4.97;;
11328;SDS011;5719;42.714;23.732;2023-02-01T08:03:27;14.65;;;5.90;;
11328;SDS011;5719;42.714;23.732;2023-02-01T08:05:55;11.82;;;5.45;;
11328;SDS011;5719;42.714;23.732;2023-02-01T08:08:22;13.27;;;5.75;;
11328;SDS011;5719;42.714;23.732;2023-02-01T08:10:49;9.15;;;4.65;;
11328;SDS011;5719;42.714;23.732;2023-02-01T08:13:16;8.10;;;5.07;;
11328;SDS011;5719;42.714;23.732;2023-02-01T08:15:43;7.65;;;4.60;;
11328;SDS011;5719;42.714;23.732;2023-02-01T08:18:10;9.45;;;4.82;;
11328;SDS011;5719;42.714;23.732;2023-02-01T08:20:41;11.55;;;4.70;;
11328;SDS011;5719;42.714;23.732;2023-02-01T08:23:12;15.60;;;4.80;;
11328;SDS011;5719;42.714;23.732;2023-02-01T08:25:39;10.27;;;4.50;;
11328;SDS011;5719;42.714;23.732;2023-02-01T08:28:06;11.35;;;4.38;;
11328;SDS011;5719;42.714;23.732;2023-02-01T08:30:33;6.20;;;4.35;;
11328;SDS011;5719;42.714;23.732;2023-02-01T08:33:00;13.85;;;5.95;;
11328;SDS011;5719;42.714;23.732;2023-02-01T08:35:27;12.45;;;5.28;;
11328;SDS011;5719;42.714;23.732;2023-02-01T08:37:54;11.57;;;5.15;;
11328;SDS011;5719;42.714;23.732;2023-02-01T08:40:22;8.32;;;4.57;;
11328;SDS011;5719;42.714;23.732;2023-02-01T08:42:49;10.07;;;4.80;;
11328;SDS011;5719;42.714;23.732;2023-02-01T08:45:19;9.80;;;4.70;;
11328;SDS011;5719;42.714;23.732;2023-02-01T08:47:49;10.52;;;4.85;;
11328;SDS011;5719;42.714;23.732;2023-02-01T08:50:16;8.52;;;4.82;;
11328;SDS011;5719;42.714;23.732;2023-02-01T08:52:44;14.40;;;6.28;;
11328;SDS011;5719;42.714;23.732;2023-02-01T08:55:11;20.00;;;8.70;;
11328;SDS011;5719;42.714;23.732;2023-02-01T08:57:39;25.80;;;9.80;;
11328;SDS011;5719;42.714;23.732;2023-02-01T09:00:07;13.90;;;6.15;;
11328;SDS011;5719;42.714;23.732;2023-02-01T09:02:37;17.15;;;6.78;;
11328;SDS011;5719;42.714;23.732;2023-02-01T09:05:04;17.40;;;6.22;;
11328;SDS011;5719;42.714;23.732;2023-02-01T09:07:31;10.23;;;5.30;;
11328;SDS011;5719;42.714;23.732;2023-02-01T09:09:58;13.43;;;5.03;;
11328;SDS011;5719;42.714;23.732;2023-02-01T09:12:26;11.05;;;5.38;;
11328;SDS011;5719;42.714;23.732;2023-02-01T09:14:55;9.90;;;5.47;;
11328;SDS011;5719;42.714;23.732;2023-02-01T09:17:24;10.88;;;4.85;;
11328;SDS011;5719;42.714;23.732;2023-02-01T09:19:52;10.45;;;4.22;;
11328;SDS011;5719;42.714;23.732;2023-02-01T09:22:19;13.75;;;5.72;;
11328;SDS011;5719;42.714;23.732;2023-02-01T09:24:46;9.93;;;6.07;;
11328;SDS011;5719;42.714;23.732;2023-02-01T09:27:13;8.55;;;5.85;;
11328;SDS011;5719;42.714;23.732;2023-02-01T09:29:40;11.75;;;6.45;;
11328;SDS011;5719;42.714;23.732;2023-02-01T09:32:09;7.15;;;4.88;;
11328;SDS011;5719;42.714;23.732;2023-02-01T09:34:36;11.27;;;5.63;;
11328;SDS011;5719;42.714;23.732;2023-02-01T09:37:03;10.43;;;6.03;;
11328;SDS011;5719;42.714;23.732;2023-02-01T09:39:30;6.85;;;4.40;;
11328;SDS011;5719;42.714;23.732;2023-02-01T09:41:59;15.90;;;7.47;;
11328;SDS011;5719;42.714;23.732;2023-02-01T09:44:41;13.75;;;4.88;;
11328;SDS011;5719;42.714;23.732;2023-02-01T09:47:22;9.45;;;4.60;;
11328;SDS011;5719;42.714;23.732;2023-02-01T09:49:53;8.18;;;4.75;;
11328;SDS011;5719;42.714;23.732;2023-02-01T09:52:27;13.70;;;5.97;;
11328;SDS011;5719;42.714;23.732;2023-02-01T09:55:01;9.15;;;5.30;;
11328;SDS011;5719;42.714;23.732;2023-02-01T09:57:35;12.75;;;5.70;;
11328;SDS011;5719;42.714;23.732;2023-02-01T10:00:13;13.25;;;4.82;;
11328;SDS011;5719;42.714;23.732;2023-02-01T10:02:46;10.50;;;5.07;;
11328;SDS011;5719;42.714;23.732;2023-02-01T10:05:14;8.43;;;4.55;;
11328;SDS011;5719;42.714;23.732;2023-02-01T10:07:44;10.05;;;4.95;;
11328;SDS011;5719;42.714;23.732;2023-02-01T10:10:20;7.53;;;4.78;;
11328;SDS011;5719;42.714;23.732;2023-02-01T10:12:58;13.18;;;6.68;;
11328;SDS011;5719;42.714;23.732;2023-02-01T10:15:41;8.93;;;4.53;;
11328;SDS011;5719;42.714;23.732;2023-02-01T10:18:25;9.43;;;4.53;;
11328;SDS011;5719;42.714;23.732;2023-02-01T10:21:02;6.40;;;3.80;;
11328;SDS011;5719;42.714;23.732;2023-02-01T10:23:41;10.38;;;4.10;;
11328;SDS011;5719;42.714;23.732;2023-02-01T10:26:17;9.27;;;3.72;;
11328;SDS011;5719;42.714;23.732;2023-02-01T10:28:46;6.82;;;3.95;;
11328;SDS011;5719;42.714;23.732;2023-02-01T10:31:16;9.90;;;3.95;;
11328;SDS011;5719;42.714;23.732;2023-02-01T10:33:46;11.85;;;3.90;;
11328;SDS011;5719;42.714;23.732;2023-02-01T10:36:16;9.02;;;3.78;;
11328;SDS011;5719;42.714;23.732;2023-02-01T10:38:49;8.05;;;4.10;;
11328;SDS011;5719;42.714;23.732;2023-02-01T10:41:16;5.60;;;3.38;;
11328;SDS011;5719;42.714;23.732;2023-02-01T10:43:47;9.20;;;4.38;;
11328;SDS011;5719;42.714;23.732;2023-02-01T10:46:18;8.85;;;3.35;;
11328;SDS011;5719;42.714;23.732;2023-02-01T10:48:46;4.85;;;3.10;;
11328;SDS011;5719;42.714;23.732;2023-02-01T10:51:15;6.15;;;3.30;;
11328;SDS011;5719;42.714;23.732;2023-02-01T10:53:47;9.00;;;2.90;;
11328;SDS011;5719;42.714;23.732;2023-02-01T10:56:21;5.53;;;2.92;;
11328;SDS011;5719;42.714;23.732;2023-02-01T10:58:49;8.45;;;2.70;;
11328;SDS011;5719;42.714;23.732;2023-02-01T11:01:19;7.63;;;2.75;;
11328;SDS011;5719;42.714;23.732;2023-02-01T11:03:53;4.00;;;2.53;;
11328;SDS011;5719;42.714;23.732;2023-02-01T11:06:24;5.93;;;2.50;;
11328;SDS011;5719;42.714;23.732;2023-02-01T11:08:55;8.88;;;3.03;;
11328;SDS011;5719;42.714;23.732;2023-02-01T11:11:23;4.85;;;2.70;;
11328;SDS011;5719;42.714;23.732;2023-02-01T11:13:52;8.40;;;2.42;;
11328;SDS011;5719;42.714;23.732;2023-02-01T11:16:21;5.90;;;2.53;;
11328;SDS011;5719;42.714;23.732;2023-02-01T11:18:57;9.85;;;4.32;;
11328;SDS011;5719;42.714;23.732;2023-02-01T11:21:24;3.47;;;2.55;;
11328;SDS011;5719;42.714;23.732;2023-02-01T11:23:52;5.85;;;2.45;;
11328;SDS011;5719;42.714;23.732;2023-02-01T11:26:22;5.72;;;2.67;;
11328;SDS011;5719;42.714;23.732;2023-02-01T11:28:52;7.47;;;2.65;;
11328;SDS011;5719;42.714;23.732;2023-02-01T11:31:23;4.87;;;2.50;;
11328;SDS011;5719;42.714;23.732;2023-02-01T11:33:52;4.75;;;2.65;;
11328;SDS011;5719;42.714;23.732;2023-02-01T11:36:24;3.88;;;2.75;;
11328;SDS011;5719;42.714;23.732;2023-02-01T11:38:54;4.95;;;3.00;;
11328;SDS011;5719;42.714;23.732;2023-02-01T11:41:40;7.57;;;2.42;;
11328;SDS011;5719;42.714;23.732;2023-02-01T11:47:08;5.47;;;2.38;;
11328;SDS011;5719;42.714;23.732;2023-02-01T11:49:45;7.93;;;2.22;;
11328;SDS011;5719;42.714;23.732;2023-02-01T11:52:15;8.27;;;2.67;;
11328;SDS011;5719;42.714;23.732;2023-02-01T11:54:55;4.13;;;2.25;;
11328;SDS011;5719;42.714;23.732;2023-02-01T11:57:37;4.78;;;2.00;;
11328;SDS011;5719;42.714;23.732;2023-02-01T12:00:17;5.85;;;2.20;;
11328;SDS011;5719;42.714;23.732;2023-02-01T12:02:59;4.63;;;2.22;;
11328;SDS011;5719;42.714;23.732;2023-02-01T12:05:56;5.40;;;2.60;;
11328;SDS011;5719;42.714;23.732;2023-02-01T12:08:31;9.65;;;3.92;;
11328;SDS011;5719;42.714;23.732;2023-02-01T12:11:16;3.83;;;2.60;;
11328;SDS011;5719;42.714;23.732;2023-02-01T12:13:57;12.20;;;5.55;;
11328;SDS011;5719;42.714;23.732;2023-02-01T12:16:37;8.75;;;5.15;;
11328;SDS011;5719;42.714;23.732;2023-02-01T12:19:16;6.22;;;3.50;;
11328;SDS011;5719;42.714;23.732;2023-02-01T12:24:50;3.85;;;2.10;;
11328;SDS011;5719;42.714;23.732;2023-02-01T12:30:35;3.85;;;2.30;;
11328;SDS011;5719;42.714;23.732;2023-02-01T12:33:26;7.10;;;2.72;;
11328;SDS011;5719;42.714;23.732;2023-02-01T12:36:08;3.53;;;1.92;;
11328;SDS011;5719;42.714;23.732;2023-02-01T12:38:45;3.70;;;2.63;;
11328;SDS011;5719;42.714;23.732;2023-02-01T12:41:26;3.60;;;2.10;;
11328;SDS011;5719;42.714;23.732;2023-02-01T12:44:24;10.98;;;4.22;;
11328;SDS011;5719;42.714;23.732;2023-02-01T12:46:57;7.20;;;2.20;;
11328;SDS011;5719;42.714;23.732;2023-02-01T12:49:28;9.60;;;2.80;;
11328;SDS011;5719;42.714;23.732;2023-02-01T12:52:09;5.47;;;2.85;;
11328;SDS011;5719;42.714;23.732;2023-02-01T12:54:41;4.40;;;3.10;;
11328;SDS011;5719;42.714;23.732;2023-02-01T12:57:14;6.35;;;2.90;;
11328;SDS011;5719;42.714;23.732;2023-02-01T12:59:47;7.50;;;3.05;;
11328;SDS011;5719;42.714;23.732;2023-02-01T13:02:19;4.65;;;2.10;;
11328;SDS011;5719;42.714;23.732;2023-02-01T13:04:53;4.45;;;2.50;;
11328;SDS011;5719;42.714;23.732;2023-02-01T13:07:29;4.78;;;2.47;;
11328;SDS011;5719;42.714;23.732;2023-02-01T13:10:01;7.65;;;2.22;;
11328;SDS011;5719;42.714;23.732;2023-02-01T13:12:37;5.18;;;2.60;;
11328;SDS011;5719;42.714;23.732;2023-02-01T13:15:10;9.65;;;4.13;;
11328;SDS011;5719;42.714;23.732;2023-02-01T13:17:41;3.95;;;2.17;;
11328;SDS011;5719;42.714;23.732;2023-02-01T13:20:13;6.13;;;2.70;;
11328;SDS011;5719;42.714;23.732;2023-02-01T13:22:46;5.20;;;2.67;;
11328;SDS011;5719;42.714;23.732;2023-02-01T13:25:19;4.05;;;2.10;;
11328;SDS011;5719;42.714;23.732;2023-02-01T13:27:58;4.28;;;2.20;;
11328;SDS011;5719;42.714;23.732;2023-02-01T13:30:30;2.92;;;2.00;;
11328;SDS011;5719;42.714;23.732;2023-02-01T13:33:23;2.92;;;2.17;;
11328;SDS011;5719;42.714;23.732;2023-02-01T13:36:14;3.92;;;1.88;;
11328;SDS011;5719;42.714;23.732;2023-02-01T13:39:18;4.10;;;2.40;;
11328;SDS011;5719;42.714;23.732;2023-02-01T13:41:57;3.15;;;2.08;;
11328;SDS011;5719;42.714;23.732;2023-02-01T13:44:28;4.18;;;2.05;;
11328;SDS011;5719;42.714;23.732;2023-02-01T13:46:59;4.65;;;2.08;;
11328;SDS011;5719;42.714;23.732;2023-02-01T13:49:28;3.08;;;2.10;;
11328;SDS011;5719;42.714;23.732;2023-02-01T13:52:03;6.55;;;2.20;;
11328;SDS011;5719;42.714;23.732;2023-02-01T13:54:32;2.60;;;1.83;;
11328;SDS011;5719;42.714;23.732;2023-02-01T13:57:03;4.40;;;2.20;;
11328;SDS011;5719;42.714;23.732;2023-02-01T13:59:48;4.45;;;2.40;;
11328;SDS011;5719;42.714;23.732;2023-02-01T14:08:22;2.40;;;2.20;;
11328;SDS011;5719;42.714;23.732;2023-02-01T14:11:01;3.97;;;2.50;;
11328;SDS011;5719;42.714;23.732;2023-02-01T14:13:29;5.88;;;2.20;;
11328;SDS011;5719;42.714;23.732;2023-02-01T14:18:49;3.83;;;1.70;;
11328;SDS011;5719;42.714;23.732;2023-02-01T14:21:25;6.38;;;2.55;;
11328;SDS011;5719;42.714;23.732;2023-02-01T14:23:56;3.90;;;2.33;;
11328;SDS011;5719;42.714;23.732;2023-02-01T14:26:25;6.05;;;2.30;;
11328;SDS011;5719;42.714;23.732;2023-02-01T14:29:14;3.97;;;2.45;;
11328;SDS011;5719;42.714;23.732;2023-02-01T14:31:54;2.78;;;2.20;;
11328;SDS011;5719;42.714;23.732;2023-02-01T14:34:33;3.83;;;2.45;;
11328;SDS011;5719;42.714;23.732;2023-02-01T14:37:08;7.07;;;2.35;;
11328;SDS011;5719;42.714;23.732;2023-02-01T14:39:40;6.50;;;2.60;;
11328;SDS011;5719;42.714;23.732;2023-02-01T14:42:21;5.85;;;2.65;;
11328;SDS011;5719;42.714;23.732;2023-02-01T14:44:51;4.93;;;2.65;;
11328;SDS011;5719;42.714;23.732;2023-02-01T14:47:30;12.30;;;2.83;;
11328;SDS011;5719;42.714;23.732;2023-02-01T14:50:02;4.97;;;2.30;;
11328;SDS011;5719;42.714;23.732;2023-02-01T14:52:37;5.63;;;2.78;;
11328;SDS011;5719;42.714;23.732;2023-02-01T14:55:10;3.50;;;2.03;;
11328;SDS011;5719;42.714;23.732;2023-02-01T14:57:40;5.07;;;2.60;;
11328;SDS011;5719;42.714;23.732;2023-02-01T15:00:17;6.85;;;2.58;;
11328;SDS011;5719;42.714;23.732;2023-02-01T15:02:49;3.10;;;2.33;;
11328;SDS011;5719;42.714;23.732;2023-02-01T15:05:25;4.57;;;2.92;;
11328;SDS011;5719;42.714;23.732;2023-02-01T15:07:56;3.67;;;2.30;;
11328;SDS011;5719;42.714;23.732;2023-02-01T15:10:29;3.05;;;2.00;;
11328;SDS011;5719;42.714;23.732;2023-02-01T15:12:58;3.22;;;1.70;;
11328;SDS011;5719;42.714;23.732;2023-02-01T15:15:26;4.20;;;2.58;;
11328;SDS011;5719;42.714;23.732;2023-02-01T15:17:54;2.55;;;2.00;;
11328;SDS011;5719;42.714;23.732;2023-02-01T15:20:24;3.05;;;2.05;;
11328;SDS011;5719;42.714;23.732;2023-02-01T15:22:54;3.30;;;2.03;;
11328;SDS011;5719;42.714;23.732;2023-02-01T15:25:24;4.38;;;2.35;;
11328;SDS011;5719;42.714;23.732;2023-02-01T15:27:52;6.38;;;3.03;;
11328;SDS011;5719;42.714;23.732;2023-02-01T15:30:20;4.43;;;2.30;;
11328;SDS011;5719;42.714;23.732;2023-02-01T15:32:48;8.88;;;4.55;;
11328;SDS011;5719;42.714;23.732;2023-02-01T15:35:35;3.08;;;2.45;;
11328;SDS011;5719;42.714;23.732;2023-02-01T15:41:05;3.78;;;2.40;;